Time;durP1;ratioP1;P1;durP2;ratioP2;P2;SDS_P1;SDS_P2;PMS_P1;PMS_P2;Temp;Humidity;BMP_temperature;BMP_pressure;BME280_temperature;BME280_humidity;BME280_pressure;Samples;Min_cycle;Max_cycle;Signal;HPM_P1;HPM_P2
2023/07/13 00:01:49;;;;;;;9.02;1.48;;;15.70;99.90;;;;;;5117297;27;20180;-71
2023/07/13 00:04:20;;;;;;;9.15;1.27;;;15.60;99.90;;;;;;5136306;27;20051;-70
2023/07/13 00:06:47;;;;;;;7.18;1.38;;;15.60;99.90;;;;;;5135525;27;20058;-71
2023/07/13 00:09:16;;;;;;;9.27;1.30;;;15.50;99.90;;;;;;5135376;27;20047;-70
2023/07/13 00:11:43;;;;;;;8.25;1.50;;;15.60;99.90;;;;;;5135237;27;20050;-70
2023/07/13 00:14:10;;;;;;;11.68;1.55;;;15.50;99.90;;;;;;5151261;27;20475;-70
2023/07/13 00:16:37;;;;;;;7.97;1.17;;;15.50;99.90;;;;;;5117446;27;20497;-70
2023/07/13 00:19:03;;;;;;;9.35;1.38;;;15.50;99.90;;;;;;5135283;27;20082;-70
2023/07/13 00:21:28;;;;;;;6.18;2.15;;;15.50;99.90;;;;;;5134874;27;20101;-70
2023/07/13 00:23:54;;;;;;;10.77;2.13;;;15.50;99.90;;;;;;5135654;27;20510;-70
2023/07/13 00:26:20;;;;;;;9.23;1.52;;;15.50;99.90;;;;;;5117284;27;20079;-69
2023/07/13 00:28:46;;;;;;;11.90;1.30;;;15.50;99.90;;;;;;5117246;27;20043;-69
2023/07/13 00:31:14;;;;;;;4.68;1.00;;;15.50;99.90;;;;;;5135037;27;20401;-71
2023/07/13 00:33:40;;;;;;;7.95;1.15;;;15.60;99.90;;;;;;5117573;27;20122;-70
2023/07/13 00:36:06;;;;;;;9.00;1.60;;;15.60;99.90;;;;;;5135729;27;20043;-70
2023/07/13 00:38:32;;;;;;;10.57;1.40;;;15.60;99.90;;;;;;5134591;27;20054;-70
2023/07/13 00:40:58;;;;;;;11.48;1.38;;;15.70;99.90;;;;;;5099357;27;20062;-70
2023/07/13 00:43:26;;;;;;;12.27;1.48;;;15.70;99.90;;;;;;5134899;27;20046;-70
2023/07/13 00:45:52;;;;;;;8.15;1.17;;;15.70;99.90;;;;;;5116391;27;20051;-71
2023/07/13 00:48:22;;;;;;;7.72;1.10;;;15.70;99.90;;;;;;5134787;27;20043;-69
2023/07/13 00:50:51;;;;;;;11.50;1.20;;;15.70;99.90;;;;;;5134637;27;20483;-70
2023/07/13 00:53:18;;;;;;;7.50;1.40;;;15.80;99.90;;;;;;5134567;27;20126;-72
2023/07/13 00:55:44;;;;;;;8.20;1.25;;;15.70;99.90;;;;;;5134839;27;20050;-71
2023/07/13 00:58:10;;;;;;;8.07;1.55;;;15.70;99.90;;;;;;5134667;27;20086;-73
2023/07/13 01:00:38;;;;;;;6.28;1.35;;;15.70;99.90;;;;;;5134950;27;20131;-72
2023/07/13 01:03:04;;;;;;;11.00;1.50;;;15.70;99.90;;;;;;5100102;28;20059;-73
2023/07/13 01:05:33;;;;;;;12.00;1.48;;;15.70;99.90;;;;;;5116336;27;20406;-72
2023/07/13 01:08:00;;;;;;;9.73;1.52;;;15.70;99.90;;;;;;5150643;27;20039;-73
2023/07/13 01:10:26;;;;;;;8.05;1.35;;;15.70;99.90;;;;;;5134543;27;20051;-72
2023/07/13 01:12:53;;;;;;;9.02;1.50;;;15.70;99.90;;;;;;5099718;28;20467;-72
2023/07/13 01:15:38;;;;;;;10.20;1.48;;;15.60;99.90;;;;;;5134487;27;20043;-72
2023/07/13 01:18:07;;;;;;;9.90;1.70;;;15.60;99.90;;;;;;5134723;28;20097;-73
2023/07/13 01:20:36;;;;;;;10.32;1.35;;;15.50;99.90;;;;;;5116071;28;20104;-72
2023/07/13 01:23:12;;;;;;;7.45;1.23;;;15.50;99.90;;;;;;5116347;28;20043;-72
2023/07/13 01:25:39;;;;;;;14.15;1.80;;;15.50;99.90;;;;;;5115993;28;20055;-73
2023/07/13 01:28:09;;;;;;;12.33;1.63;;;15.50;99.90;;;;;;5099325;28;20185;-73
2023/07/13 01:30:40;;;;;;;12.30;1.40;;;15.60;99.90;;;;;;5099252;28;20043;-72
2023/07/13 01:33:09;;;;;;;9.88;1.15;;;15.50;99.90;;;;;;5137140;27;20039;-73
2023/07/13 01:35:36;;;;;;;9.77;1.60;;;15.60;99.90;;;;;;5120197;27;20142;-73
2023/07/13 01:38:02;;;;;;;14.27;1.48;;;15.60;99.90;;;;;;5120397;27;20403;-73
2023/07/13 01:40:28;;;;;;;7.60;1.23;;;15.60;99.90;;;;;;5138340;27;20070;-73
2023/07/13 01:42:54;;;;;;;11.50;1.50;;;15.60;99.90;;;;;;5102937;27;20099;-73
2023/07/13 01:45:20;;;;;;;9.63;1.50;;;15.70;99.90;;;;;;5138395;27;20047;-73
2023/07/13 01:47:46;;;;;;;9.20;1.45;;;15.70;99.90;;;;;;5138311;27;20051;-73
2023/07/13 01:50:11;;;;;;;13.27;1.58;;;15.70;99.90;;;;;;5120706;27;20039;-73
2023/07/13 01:52:37;;;;;;;12.18;1.70;;;15.70;99.90;;;;;;5137286;27;20043;-72
2023/07/13 01:55:03;;;;;;;8.98;1.35;;;15.60;99.90;;;;;;5119883;27;20085;-73
2023/07/13 01:57:29;;;;;;;7.68;1.42;;;15.60;99.90;;;;;;5121042;27;20047;-72
2023/07/13 01:59:55;;;;;;;8.70;1.58;;;15.50;99.90;;;;;;5138148;27;20424;-71
2023/07/13 02:02:21;;;;;;;12.43;1.23;;;15.40;99.90;;;;;;5119810;27;20047;-71
2023/07/13 02:04:46;;;;;;;10.25;1.55;;;15.40;99.90;;;;;;5119712;27;20088;-73
2023/07/13 02:07:12;;;;;;;8.43;1.45;;;15.30;99.90;;;;;;5120617;27;20059;-74
2023/07/13 02:09:38;;;;;;;7.95;1.48;;;15.30;99.90;;;;;;5138709;27;20039;-73
2023/07/13 02:12:04;;;;;;;8.77;1.20;;;15.30;99.90;;;;;;5119495;27;20043;-72
2023/07/13 02:14:29;;;;;;;11.38;1.45;;;15.20;99.90;;;;;;5119662;27;20051;-71
2023/07/13 02:16:55;;;;;;;9.48;1.42;;;15.20;99.90;;;;;;5119587;27;20043;-72
2023/07/13 02:19:21;;;;;;;10.15;1.80;;;15.20;99.90;;;;;;5137425;27;20066;-73
2023/07/13 02:21:48;;;;;;;11.75;2.00;;;15.10;99.90;;;;;;5138055;27;20463;-73
2023/07/13 02:24:17;;;;;;;9.00;1.63;;;15.10;99.90;;;;;;5119387;27;20047;-73
2023/07/13 02:26:44;;;;;;;9.68;1.55;;;15.10;99.90;;;;;;5102772;27;20043;-72
2023/07/13 02:29:10;;;;;;;16.30;2.10;;;15.10;99.90;;;;;;5137305;27;20133;-71
2023/07/13 02:31:35;;;;;;;12.05;1.67;;;15.10;99.90;;;;;;5119763;27;20047;-73
2023/07/13 02:34:02;;;;;;;8.85;1.70;;;15.10;99.90;;;;;;5137806;27;20054;-72
2023/07/13 02:36:28;;;;;;;10.00;1.55;;;15.10;99.90;;;;;;5137440;27;20387;-72
2023/07/13 02:38:54;;;;;;;15.90;1.80;;;15.10;99.90;;;;;;5138177;27;20123;-72
2023/07/13 02:41:20;;;;;;;15.57;1.75;;;15.10;99.90;;;;;;5118768;27;20063;-70
2023/07/13 02:43:46;;;;;;;13.03;1.73;;;15.20;99.90;;;;;;5136831;27;20051;-72
2023/07/13 02:46:12;;;;;;;13.40;1.75;;;15.20;99.90;;;;;;5137209;27;20280;-74
2023/07/13 02:48:38;;;;;;;10.50;1.95;;;15.20;99.90;;;;;;5085297;27;20040;-72
2023/07/13 02:51:05;;;;;;;12.57;1.40;;;15.20;99.90;;;;;;5137575;27;20406;-73
2023/07/13 02:53:31;;;;;;;15.13;2.42;;;15.20;99.90;;;;;;5136784;27;20527;-72
2023/07/13 02:55:56;;;;;;;15.00;1.92;;;15.20;99.90;;;;;;5118785;27;20075;-73
2023/07/13 02:58:22;;;;;;;13.32;1.80;;;15.20;99.90;;;;;;5118558;27;20047;-73
2023/07/13 03:00:49;;;;;;;13.00;2.08;;;15.20;99.90;;;;;;5118606;27;20043;-73
2023/07/13 03:03:16;;;;;;;12.00;1.48;;;15.10;99.90;;;;;;5137097;27;20047;-72
2023/07/13 03:05:49;;;;;;;11.05;2.03;;;15.10;99.90;;;;;;5101815;27;20107;-73
2023/07/13 03:08:16;;;;;;;9.55;1.70;;;15.10;99.90;;;;;;5118902;27;20502;-73
2023/07/13 03:10:41;;;;;;;11.60;2.00;;;15.10;99.90;;;;;;5118517;27;20475;-73
2023/07/13 03:13:07;;;;;;;11.52;2.33;;;15.10;99.90;;;;;;5118579;27;20047;-73
2023/07/13 03:15:33;;;;;;;9.27;1.88;;;15.10;99.90;;;;;;5119134;27;20050;-74
2023/07/13 03:17:59;;;;;;;11.82;2.13;;;15.00;99.90;;;;;;5118314;27;20043;-73
2023/07/13 03:20:25;;;;;;;12.05;1.90;;;15.10;99.90;;;;;;5136775;27;20073;-73
2023/07/13 03:22:50;;;;;;;15.48;2.05;;;15.10;99.90;;;;;;5118410;27;20539;-73
2023/07/13 03:25:16;;;;;;;13.30;1.83;;;15.10;99.90;;;;;;5118568;27;20054;-72
2023/07/13 03:27:42;;;;;;;12.82;2.05;;;15.10;99.90;;;;;;5136167;27;20039;-72
2023/07/13 03:30:08;;;;;;;10.50;2.20;;;15.10;99.90;;;;;;5135717;27;20055;-73
2023/07/13 03:32:34;;;;;;;10.30;1.88;;;15.10;99.90;;;;;;5139151;27;20050;-72
2023/07/13 03:35:01;;;;;;;12.43;1.98;;;15.10;99.90;;;;;;5123753;27;20051;-72
2023/07/13 03:37:27;;;;;;;12.73;2.10;;;15.10;99.90;;;;;;5143823;27;20109;-71
2023/07/13 03:39:53;;;;;;;9.00;1.92;;;15.10;99.90;;;;;;5142215;27;20043;-71
2023/07/13 03:42:18;;;;;;;13.45;2.20;;;15.10;99.90;;;;;;5141659;27;20047;-72
2023/07/13 03:44:50;;;;;;;11.75;1.88;;;15.10;99.90;;;;;;5139946;27;20039;-71
2023/07/13 03:47:16;;;;;;;11.60;2.13;;;15.00;99.90;;;;;;5122192;27;20055;-72
2023/07/13 03:49:42;;;;;;;7.43;2.00;;;15.00;99.90;;;;;;5121782;27;20421;-73
2023/07/13 03:52:07;;;;;;;7.97;2.08;;;15.10;99.90;;;;;;5121260;27;20039;-71
2023/07/13 03:54:33;;;;;;;9.50;2.20;;;15.10;99.90;;;;;;5138142;27;20459;-71
2023/07/13 03:56:59;;;;;;;9.90;2.10;;;15.10;99.90;;;;;;5121405;27;20043;-71
2023/07/13 03:59:25;;;;;;;17.67;2.20;;;15.10;99.90;;;;;;5119499;27;20066;-73
2023/07/13 04:01:50;;;;;;;7.60;1.75;;;15.10;99.90;;;;;;5117641;27;20039;-73
2023/07/13 04:04:16;;;;;;;7.82;2.00;;;15.20;99.90;;;;;;5135619;27;20050;-73
2023/07/13 04:06:42;;;;;;;11.70;2.25;;;15.20;99.90;;;;;;5135702;27;20174;-74
2023/07/13 04:09:09;;;;;;;8.93;1.92;;;15.10;99.90;;;;;;5118102;27;20057;-73
2023/07/13 04:11:36;;;;;;;;;;;15.20;99.90;;;;;;5135902;27;20047;-73
2023/07/13 04:14:02;;;;;;;10.20;1.67;;;15.10;99.90;;;;;;5100888;27;20009;-73
2023/07/13 04:16:28;;;;;;;7.07;1.73;;;15.10;99.90;;;;;;5135499;27;20534;-73
2023/07/13 04:18:57;;;;;;;11.13;1.88;;;15.10;99.90;;;;;;5117279;27;20047;-74
2023/07/13 04:21:23;;;;;;;9.38;2.10;;;15.00;99.90;;;;;;5117176;27;20492;-74
2023/07/13 04:23:48;;;;;;;13.57;2.22;;;15.00;99.90;;;;;;5135860;27;20097;-73
2023/07/13 04:26:14;;;;;;;10.23;1.83;;;14.90;99.90;;;;;;5135172;27;20126;-73
2023/07/13 04:28:41;;;;;;;13.07;2.13;;;14.90;99.90;;;;;;5135220;27;20047;-72
2023/07/13 04:31:07;;;;;;;;;;;14.90;99.90;;;;;;5117115;27;20046;-73
2023/07/13 04:33:33;;;;;;;15.93;2.37;;;14.90;99.90;;;;;;5134665;27;19920;-73
2023/07/13 04:35:59;;;;;;;11.80;2.30;;;14.90;99.90;;;;;;5116554;27;20047;-73
2023/07/13 04:38:27;;;;;;;13.38;2.22;;;15.00;99.90;;;;;;5135069;27;20050;-73
2023/07/13 04:40:56;;;;;;;14.38;2.53;;;15.00;99.90;;;;;;5116808;27;20054;-72
2023/07/13 04:43:22;;;;;;;15.00;2.33;;;15.10;99.90;;;;;;5100318;27;20047;-73
2023/07/13 04:45:47;;;;;;;10.13;2.15;;;15.10;99.90;;;;;;5099791;27;20043;-72
2023/07/13 04:48:13;;;;;;;10.65;2.15;;;15.10;99.90;;;;;;5134518;27;20039;-72
2023/07/13 04:50:39;;;;;;;8.95;2.20;;;15.20;99.90;;;;;;5134771;27;20122;-72
2023/07/13 04:53:06;;;;;;;18.35;2.17;;;15.20;99.90;;;;;;5117499;27;20043;-73
2023/07/13 04:55:31;;;;;;;15.05;2.90;;;15.20;99.90;;;;;;5116294;27;20079;-73
2023/07/13 04:58:02;;;;;;;20.77;2.83;;;15.30;99.90;;;;;;5133560;27;20085;-71
2023/07/13 05:00:28;;;;;;;10.43;2.05;;;15.30;99.90;;;;;;5116891;27;20047;-72
2023/07/13 05:02:58;;;;;;;14.27;2.35;;;15.30;99.90;;;;;;5099674;27;20047;-73
2023/07/13 05:05:26;;;;;;;12.68;2.75;;;15.40;99.90;;;;;;5135319;27;20062;-71
2023/07/13 05:07:52;;;;;;;8.48;1.80;;;15.40;99.90;;;;;;5134266;27;20039;-72
2023/07/13 05:10:19;;;;;;;15.77;2.47;;;15.50;99.90;;;;;;5116312;28;20043;-72
2023/07/13 05:12:44;;;;;;;8.27;2.10;;;15.50;99.90;;;;;;5134655;27;20039;-72
2023/07/13 05:15:11;;;;;;;9.80;2.55;;;15.60;99.90;;;;;;5116133;28;20050;-73
2023/07/13 05:17:38;;;;;;;10.90;2.40;;;15.60;99.90;;;;;;5134400;27;20051;-73
2023/07/13 05:20:05;;;;;;;9.35;2.15;;;15.70;99.90;;;;;;5116742;28;20428;-73
2023/07/13 05:22:31;;;;;;;9.98;2.35;;;15.70;99.90;;;;;;5116100;28;20043;-73
2023/07/13 05:24:57;;;;;;;11.40;2.10;;;15.70;99.90;;;;;;5099213;28;20039;-72
2023/07/13 05:27:23;;;;;;;9.23;2.50;;;15.80;99.90;;;;;;5134902;28;20124;-73
2023/07/13 05:29:49;;;;;;;13.85;2.22;;;15.80;99.90;;;;;;5133670;28;20062;-72
2023/07/13 05:32:15;;;;;;;15.98;3.17;;;15.80;99.90;;;;;;5134393;28;20043;-71
2023/07/13 05:34:41;;;;;;;12.95;2.45;;;15.90;99.90;;;;;;5099248;28;20100;-73
2023/07/13 05:37:08;;;;;;;13.57;2.40;;;15.90;99.90;;;;;;5134371;28;20044;-73
2023/07/13 05:39:33;;;;;;;13.57;2.58;;;16.00;99.90;;;;;;5134049;28;20352;-73
2023/07/13 05:41:59;;;;;;;12.15;2.50;;;16.00;99.90;;;;;;5134907;28;20058;-72
2023/07/13 05:44:25;;;;;;;12.93;2.70;;;16.10;99.90;;;;;;5115823;28;20050;-72
2023/07/13 05:46:50;;;;;;;11.50;2.38;;;16.10;99.90;;;;;;5133083;28;20043;-73
2023/07/13 05:49:16;;;;;;;12.60;2.03;;;16.10;99.90;;;;;;5133880;28;20080;-72
2023/07/13 05:51:42;;;;;;;15.45;2.88;;;16.20;99.90;;;;;;5115697;28;20043;-72
2023/07/13 05:54:08;;;;;;;11.45;3.08;;;16.20;99.90;;;;;;5098813;28;20104;-72
2023/07/13 05:56:33;;;;;;;16.27;2.80;;;16.30;99.90;;;;;;5133929;28;20053;-72
2023/07/13 05:58:59;;;;;;;14.10;2.97;;;16.40;99.90;;;;;;5133164;28;20090;-72
2023/07/13 06:01:25;;;;;;;14.77;2.33;;;16.40;99.90;;;;;;5134104;28;20490;-73
2023/07/13 06:03:50;;;;;;;11.93;2.55;;;16.50;99.90;;;;;;5115947;28;20051;-73
2023/07/13 06:06:17;;;;;;;12.25;2.45;;;16.50;99.90;;;;;;5132891;27;20133;-72
2023/07/13 06:08:42;;;;;;;9.15;2.03;;;16.50;99.90;;;;;;5133991;28;20047;-73
2023/07/13 06:11:14;;;;;;;13.98;3.03;;;16.60;99.90;;;;;;5116755;28;20051;-71
2023/07/13 06:13:40;;;;;;;13.52;3.17;;;16.60;99.90;;;;;;5116208;28;20444;-72
2023/07/13 06:16:06;;;;;;;13.75;3.38;;;16.70;99.90;;;;;;5115596;28;20047;-72
2023/07/13 06:18:36;;;;;;;10.60;2.60;;;16.70;99.90;;;;;;5135517;27;20139;-71
2023/07/13 06:21:14;;;;;;;7.82;2.13;;;16.80;99.90;;;;;;5138529;27;20398;-72
2023/07/13 06:23:40;;;;;;;9.55;2.85;;;16.90;99.90;;;;;;5137927;27;20051;-72
2023/07/13 06:26:06;;;;;;;11.07;2.83;;;17.00;99.90;;;;;;5102358;27;20107;-72
2023/07/13 06:28:32;;;;;;;13.95;2.53;;;17.00;99.90;;;;;;5153968;27;20043;-72
2023/07/13 06:30:59;;;;;;;10.70;2.08;;;17.10;99.90;;;;;;5137562;27;20050;-72
2023/07/13 06:33:25;;;;;;;15.43;2.63;;;17.30;99.90;;;;;;5102710;27;20129;-72
2023/07/13 06:35:51;;;;;;;16.27;2.90;;;17.50;99.90;;;;;;5118632;27;20043;-71
2023/07/13 06:38:17;;;;;;;11.47;2.27;;;17.70;99.90;;;;;;5138074;27;20043;-73
2023/07/13 06:40:43;;;;;;;13.13;2.53;;;17.90;99.90;;;;;;5135763;27;20395;-70
2023/07/13 06:43:09;;;;;;;11.83;2.17;;;18.10;99.90;;;;;;5138115;27;20046;-71
2023/07/13 06:45:41;;;;;;;12.70;2.40;;;18.20;99.90;;;;;;5119073;27;20035;-73
2023/07/13 06:48:07;;;;;;;11.07;2.00;;;18.30;99.90;;;;;;5138030;27;20043;-71
2023/07/13 06:50:34;;;;;;;15.25;2.35;;;18.50;99.90;;;;;;5118695;27;20049;-73
2023/07/13 06:53:00;;;;;;;13.68;2.40;;;18.60;99.90;;;;;;5119038;27;20458;-72
2023/07/13 06:55:26;;;;;;;12.53;2.40;;;18.60;99.90;;;;;;5136959;27;20036;-70
2023/07/13 06:57:51;;;;;;;10.55;2.30;;;18.70;99.90;;;;;;5118859;27;20053;-70
2023/07/13 07:00:18;;;;;;;7.93;1.90;;;18.80;99.90;;;;;;5135988;27;20051;-72
2023/07/13 07:02:44;;;;;;;10.95;2.10;;;18.90;99.90;;;;;;5136621;27;20482;-70
2023/07/13 07:05:09;;;;;;;11.03;2.07;;;19.00;99.90;;;;;;5136881;27;20340;-72
2023/07/13 07:07:35;;;;;;;9.37;2.17;;;18.90;99.90;;;;;;5119508;27;20352;-72
2023/07/13 07:10:01;;;;;;;12.80;2.07;;;18.90;99.90;;;;;;5137014;27;20455;-70
2023/07/13 07:12:26;;;;;;;8.47;1.73;;;18.90;99.90;;;;;;5101573;27;20411;-72
2023/07/13 07:14:52;;;;;;;13.93;2.33;;;18.80;99.90;;;;;;5137407;27;20050;-72
2023/07/13 07:17:18;;;;;;;11.03;2.60;;;18.80;99.90;;;;;;5136776;27;20040;-72
2023/07/13 07:19:44;;;;;;;7.97;2.10;;;18.80;99.90;;;;;;5118544;27;20042;-72
2023/07/13 07:22:10;;;;;;;12.02;2.28;;;18.80;99.90;;;;;;5118582;27;20272;-70
2023/07/13 07:24:35;;;;;;;12.70;2.50;;;18.80;99.90;;;;;;5118550;27;20047;-70
2023/07/13 07:27:01;;;;;;;9.77;2.50;;;18.90;99.90;;;;;;5118292;27;20047;-71
2023/07/13 07:29:27;;;;;;;14.63;2.77;;;18.90;99.90;;;;;;5117572;28;20368;-72
2023/07/13 07:31:53;;;;;;;11.20;2.67;;;18.90;99.90;;;;;;5118491;27;20047;-71
2023/07/13 07:34:19;;;;;;;19.00;2.70;;;19.00;99.90;;;;;;5136290;27;20281;-71
2023/07/13 07:36:45;;;;;;;11.77;2.50;;;19.00;99.90;;;;;;5134870;27;20042;-73
2023/07/13 07:39:11;;;;;;;11.30;2.83;;;19.10;99.90;;;;;;5136140;27;20092;-73
2023/07/13 07:41:37;;;;;;;12.07;2.72;;;19.20;99.90;;;;;;5137367;27;20059;-73
2023/07/13 07:44:03;;;;;;;10.95;2.67;;;19.20;99.90;;;;;;5118757;27;20127;-72
2023/07/13 07:46:29;;;;;;;12.80;3.08;;;19.30;99.90;;;;;;5100973;27;20122;-72
2023/07/13 07:48:56;;;;;;;15.47;2.87;;;19.40;99.90;;;;;;5136037;27;20043;-73
2023/07/13 07:51:22;;;;;;;12.57;2.58;;;19.50;99.90;;;;;;5134732;27;20085;-72
2023/07/13 07:53:48;;;;;;;15.03;3.20;;;19.50;99.90;;;;;;5117588;27;20079;-71
2023/07/13 07:56:16;;;;;;;12.20;3.40;;;19.60;99.90;;;;;;5084377;27;20469;-72
2023/07/13 07:58:42;;;;;;;14.68;2.92;;;19.70;99.90;;;;;;5100882;27;20069;-74
2023/07/13 08:01:08;;;;;;;14.15;3.17;;;19.70;99.90;;;;;;5117630;27;20104;-74
2023/07/13 08:03:34;;;;;;;15.67;3.47;;;19.80;99.90;;;;;;5135807;27;20043;-73
2023/07/13 08:06:01;;;;;;;18.03;3.63;;;19.90;99.90;;;;;;5117342;27;20444;-71
2023/07/13 08:08:27;;;;;;;;;;;20.00;99.90;;;;;;5152218;27;20281;-72
2023/07/13 08:10:53;;;;;;;12.25;2.97;;;20.10;99.90;;;;;;5117794;27;20060;-72
2023/07/13 08:13:19;;;;;;;15.75;3.40;;;20.40;99.90;;;;;;5100483;27;20047;-73
2023/07/13 08:15:46;;;;;;;11.57;3.40;;;20.50;99.90;;;;;;5134486;27;20050;-73
2023/07/13 08:18:12;;;;;;;15.25;3.63;;;20.80;99.90;;;;;;5117154;27;20047;-72
2023/07/13 08:20:40;;;;;;;9.63;3.00;;;21.00;99.90;;;;;;5135485;27;20042;-73
2023/07/13 08:23:09;;;;;;;12.30;3.40;;;21.10;99.90;;;;;;5116980;27;20046;-72
2023/07/13 08:25:35;;;;;;;14.38;3.80;;;21.20;99.90;;;;;;5135379;27;20039;-72
2023/07/13 08:28:02;;;;;;;11.97;3.90;;;21.00;99.90;;;;;;5116863;27;20042;-73
2023/07/13 08:30:27;;;;;;;;;;;20.80;99.90;;;;;;5117356;27;20482;-71
2023/07/13 08:32:54;;;;;;;14.73;4.18;;;20.70;99.90;;;;;;5135166;27;19982;-72
2023/07/13 08:35:19;;;;;;;16.05;4.65;;;20.60;99.90;;;;;;5100668;27;20467;-72
2023/07/13 08:37:45;;;;;;;12.70;4.97;;;20.50;99.90;;;;;;5135671;27;20103;-72
2023/07/13 08:40:12;;;;;;;18.23;4.93;;;20.40;99.90;;;;;;5134814;27;20114;-71
2023/07/13 08:42:54;;;;;;;15.07;4.90;;;20.30;99.90;;;;;;5134890;27;20043;-72
2023/07/13 08:45:44;;;;;;;11.13;4.60;;;20.20;99.90;;;;;;5135313;27;20122;-71
2023/07/13 08:48:23;;;;;;;16.75;4.88;;;20.10;99.90;;;;;;5116783;27;20039;-72
2023/07/13 08:51:11;;;;;;;15.23;4.60;;;19.90;99.90;;;;;;5117370;27;20078;-72
2023/07/13 08:53:43;;;;;;;15.60;4.72;;;19.90;99.90;;;;;;5116737;27;20083;-73
2023/07/13 08:56:18;;;;;;;13.10;4.35;;;19.70;99.90;;;;;;5117240;27;20051;-71
2023/07/13 08:58:48;;;;;;;14.95;4.90;;;19.70;99.90;;;;;;5117459;27;20387;-71
2023/07/13 09:01:28;;;;;;;10.77;5.00;;;19.50;99.90;;;;;;5151746;27;20126;-70
2023/07/13 09:04:25;;;;;;;15.95;4.43;;;19.40;99.90;;;;;;5116434;27;20039;-73
2023/07/13 09:06:53;;;;;;;15.57;6.50;;;19.30;99.90;;;;;;5133421;27;20051;-73
2023/07/13 09:09:33;;;;;;;10.77;2.67;;;18.90;99.90;;;;;;5116553;28;20092;-65
2023/07/13 09:12:14;;;;;;;7.60;1.90;;;17.50;99.90;;;;;;5134831;27;20086;-65
2023/07/13 09:14:47;;;;;;;9.02;1.75;;;16.80;99.90;;;;;;5135219;28;20039;-65
2023/07/13 09:17:20;;;;;;;7.57;1.85;;;16.10;99.90;;;;;;5134928;27;20122;-66
2023/07/13 09:19:56;;;;;;;3.50;1.35;;;15.50;99.90;;;;;;5099429;28;20051;-66
2023/07/13 09:22:27;;;;;;;5.47;1.38;;;15.20;99.90;;;;;;5116727;28;20043;-66
2023/07/13 09:25:04;;;;;;;2.80;0.80;;;14.80;99.90;;;;;;5116630;28;20078;-69
2023/07/13 09:27:39;;;;;;;1.98;0.60;;;14.50;99.90;;;;;;5134486;28;20054;-64
2023/07/13 09:30:13;;;;;;;3.40;0.60;;;14.40;99.90;;;;;;5116383;28;20051;-65
2023/07/13 09:32:49;;;;;;;3.40;0.73;;;14.30;99.90;;;;;;5134371;28;20043;-65
2023/07/13 09:35:21;;;;;;;2.17;0.88;;;14.40;99.90;;;;;;5135180;28;20083;-65
2023/07/13 09:37:47;;;;;;;3.65;0.77;;;14.50;99.90;;;;;;5134949;28;20051;-65
2023/07/13 09:40:42;;;;;;;4.70;1.00;;;14.50;99.90;;;;;;5115879;28;20043;-65
2023/07/13 09:43:13;;;;;;;4.13;1.40;;;14.60;99.90;;;;;;5116265;28;20054;-66
2023/07/13 09:45:39;;;;;;;6.30;1.05;;;14.60;99.90;;;;;;5134482;28;20039;-66
2023/07/13 09:48:11;;;;;;;3.27;1.37;;;14.70;99.90;;;;;;5135221;28;20160;-66
2023/07/13 09:50:37;;;;;;;2.95;1.10;;;14.80;99.90;;;;;;5116209;28;20083;-64
2023/07/13 09:53:03;;;;;;;3.13;1.38;;;14.80;99.90;;;;;;5135679;27;20085;-65
2023/07/13 09:55:37;;;;;;;5.50;1.63;;;15.00;99.90;;;;;;5138473;27;20046;-65
2023/07/13 09:58:14;;;;;;;5.22;1.30;;;15.20;99.90;;;;;;5138243;27;20051;-66
2023/07/13 10:00:40;;;;;;;5.07;2.40;;;15.40;99.90;;;;;;5138077;27;20054;-65
2023/07/13 10:03:18;;;;;;;6.38;3.10;;;15.50;99.90;;;;;;5137977;27;20091;-65
2023/07/13 10:05:45;;;;;;;7.82;5.30;;;15.60;99.90;;;;;;5138900;27;20062;-64
2023/07/13 10:08:27;;;;;;;10.73;4.82;;;15.70;99.90;;;;;;5137896;27;20046;-65
2023/07/13 10:11:11;;;;;;;8.50;3.75;;;16.00;99.90;;;;;;5137953;27;20047;-65
2023/07/13 10:13:42;;;;;;;9.63;3.47;;;16.50;99.90;;;;;;5119785;27;20188;-66
2023/07/13 10:16:09;;;;;;;6.80;3.70;;;16.90;99.90;;;;;;5138866;27;20106;-67
2023/07/13 10:18:50;;;;;;;7.82;3.88;;;17.20;99.90;;;;;;5119404;27;20122;-66
2023/07/13 10:21:22;;;;;;;8.40;4.88;;;17.40;99.90;;;;;;5137606;27;20043;-66
2023/07/13 10:23:52;;;;;;;8.18;4.40;;;17.60;99.90;;;;;;5137863;27;20437;-67
2023/07/13 10:26:29;;;;;;;12.55;5.00;;;17.70;99.90;;;;;;5137538;27;20043;-66
2023/07/13 10:28:59;;;;;;;10.88;4.57;;;17.90;99.90;;;;;;5137648;27;20058;-67
2023/07/13 10:31:25;;;;;;;11.23;5.05;;;18.00;99.90;;;;;;5138304;27;20043;-66
2023/07/13 10:33:51;;;;;;;10.40;5.10;;;18.10;99.90;;;;;;5137287;27;20184;-66
2023/07/13 10:36:42;;;;;;;13.77;5.57;;;18.30;99.90;;;;;;5136366;27;20122;-67
2023/07/13 10:39:24;;;;;;;13.38;5.53;;;18.60;99.90;;;;;;5137259;27;20050;-66
2023/07/13 10:41:55;;;;;;;10.55;4.95;;;18.90;99.90;;;;;;5102492;27;20059;-65
2023/07/13 10:44:31;;;;;;;10.95;5.35;;;19.10;99.90;;;;;;5118633;27;20148;-66
2023/07/13 10:47:11;;;;;;;10.80;5.28;;;19.10;99.90;;;;;;5138003;27;20172;-66
2023/07/13 10:49:38;;;;;;;13.32;5.30;;;19.00;99.90;;;;;;5119066;27;20086;-66
2023/07/13 10:52:05;;;;;;;8.90;5.20;;;18.90;99.90;;;;;;5118838;27;20482;-66
2023/07/13 10:54:32;;;;;;;13.48;4.88;;;18.80;99.90;;;;;;5101742;27;20367;-65
2023/07/13 10:57:12;;;;;;;;;;;18.70;99.90;;;;;;5119721;27;20125;-66
2023/07/13 10:59:38;;;;;;;9.98;4.50;;;18.60;99.90;;;;;;5118724;27;20049;-66
2023/07/13 11:02:06;;;;;;;8.80;3.43;;;18.30;99.90;;;;;;5118432;27;20088;-65
2023/07/13 11:04:49;;;;;;;9.77;2.88;;;17.90;99.90;;;;;;5118346;27;20054;-65
2023/07/13 11:07:24;;;;;;;7.55;2.15;;;17.30;99.90;;;;;;5118502;27;20044;-67
2023/07/13 11:09:59;;;;;;;5.57;1.70;;;16.80;99.90;;;;;;5136625;27;20055;-64
2023/07/13 11:12:26;;;;;;;4.75;1.40;;;16.50;99.90;;;;;;5118384;27;20475;-65
2023/07/13 11:14:54;;;;;;;6.15;1.50;;;16.40;99.90;;;;;;5118200;27;20043;-65
2023/07/13 11:17:32;;;;;;;3.13;1.20;;;16.30;99.90;;;;;;5118420;27;20051;-64
2023/07/13 11:20:13;;;;;;;3.95;1.10;;;16.50;99.90;;;;;;5101455;27;20051;-65
2023/07/13 11:22:52;;;;;;;4.22;0.93;;;16.80;99.90;;;;;;5137002;27;20129;-64
2023/07/13 11:25:32;;;;;;;3.85;1.10;;;17.20;99.90;;;;;;5117808;27;20039;-66
2023/07/13 11:28:12;;;;;;;4.82;2.22;;;17.70;99.90;;;;;;5137098;27;20050;-66
2023/07/13 11:30:56;;;;;;;4.13;1.92;;;18.20;99.90;;;;;;5136714;27;20062;-66
2023/07/13 11:33:42;;;;;;;7.20;2.70;;;18.60;99.90;;;;;;5137057;27;20070;-68
2023/07/13 11:36:22;;;;;;;5.80;2.53;;;18.80;99.90;;;;;;5116772;27;20082;-67
2023/07/13 11:39:05;;;;;;;6.72;3.08;;;18.90;99.90;;;;;;5136864;27;20050;-67
2023/07/13 11:41:35;;;;;;;5.72;3.65;;;19.00;99.90;;;;;;5118847;27;20051;-68
2023/07/13 11:44:16;;;;;;;7.15;3.22;;;19.20;99.90;;;;;;5136967;27;20112;-67
2023/07/13 11:46:48;;;;;;;7.40;3.30;;;19.50;99.90;;;;;;5136038;27;20043;-67
2023/07/13 11:49:16;;;;;;;6.43;3.00;;;19.70;99.90;;;;;;5135909;27;20050;-68
2023/07/13 11:51:43;;;;;;;7.70;3.33;;;19.90;99.90;;;;;;5118113;27;20051;-68
2023/07/13 11:54:26;;;;;;;8.75;3.70;;;20.10;99.90;;;;;;5135984;27;20454;-68
2023/07/13 11:56:53;;;;;;;10.27;3.33;;;20.30;99.90;;;;;;5135820;27;20042;-67
2023/07/13 11:59:21;;;;;;;7.30;3.50;;;20.40;99.90;;;;;;5117749;27;20043;-67
2023/07/13 12:01:52;;;;;;;8.73;3.80;;;20.50;99.90;;;;;;5100965;27;20126;-66
2023/07/13 12:04:31;;;;;;;11.48;3.60;;;20.60;99.90;;;;;;5118330;27;20047;-67
2023/07/13 12:07:03;;;;;;;9.02;3.65;;;20.70;99.90;;;;;;5117248;27;20505;-66
2023/07/13 12:09:29;;;;;;;8.48;3.13;;;20.80;99.90;;;;;;5136061;27;20039;-66
2023/07/13 12:11:59;;;;;;;8.50;2.58;;;21.00;99.90;;;;;;5135557;27;20163;-67
2023/07/13 12:14:26;;;;;;;7.32;2.65;;;21.10;99.90;;;;;;5135412;27;20035;-68
2023/07/13 12:16:53;;;;;;;11.50;2.60;;;21.20;99.90;;;;;;5135255;27;20047;-66
2023/07/13 12:19:21;;;;;;;;;;;21.20;99.90;;;;;;5083885;27;20054;-67
2023/07/13 12:21:48;;;;;;;8.00;2.20;;;21.20;99.90;;;;;;5135612;27;20282;-67
2023/07/13 12:24:16;;;;;;;8.80;2.47;;;21.20;99.90;;;;;;5117392;27;20388;-67
2023/07/13 12:26:41;;;;;;;7.50;2.35;;;21.30;99.90;;;;;;5151206;27;20566;-66
2023/07/13 12:29:08;;;;;;;8.57;2.83;;;21.60;99.90;;;;;;5135140;27;20135;-66
2023/07/13 12:31:42;;;;;;;9.00;2.72;;;21.80;99.90;;;;;;5116742;27;20134;-68
2023/07/13 12:34:13;;;;;;;9.40;2.90;;;22.00;99.90;;;;;;5100263;27;20082;-67
2023/07/13 12:36:49;;;;;;;6.57;1.85;;;22.20;99.90;;;;;;5135539;27;20055;-68
2023/07/13 12:39:23;;;;;;;4.82;1.63;;;22.20;99.90;;;;;;5117791;27;20047;-68
2023/07/13 12:41:50;;;;;;;8.05;1.90;;;22.40;99.90;;;;;;5116335;27;20414;-68
2023/07/13 12:44:23;;;;;;;6.55;1.50;;;22.50;99.90;;;;;;5116679;27;20051;-67
2023/07/13 12:46:54;;;;;;;5.38;1.33;;;22.40;99.90;;;;;;5117181;27;20045;-68
2023/07/13 12:49:24;;;;;;;10.07;1.35;;;22.30;99.90;;;;;;5117252;27;20108;-69
2023/07/13 12:51:55;;;;;;;3.65;1.23;;;22.30;99.90;;;;;;5099895;27;20090;-68